createdAt,value
2023-01-09T00:02:13.634Z,10.43
2023-01-09T00:04:45.829Z,9.57
2023-01-09T00:07:16.455Z,9.60
2023-01-09T00:09:46.928Z,9.43
2023-01-09T00:12:20.466Z,10.33
2023-01-09T00:14:50.967Z,9.63
2023-01-09T00:17:21.384Z,9.53
2023-01-09T00:19:52.215Z,10.70
2023-01-09T00:22:22.724Z,10.53
2023-01-09T00:24:54.206Z,10.40
2023-01-09T00:27:24.756Z,10.60
2023-01-09T00:29:57.032Z,10.43
2023-01-09T00:32:28.699Z,10.35
2023-01-09T00:34:59.256Z,11.10
2023-01-09T00:37:29.792Z,10.80
2023-01-09T00:40:00.322Z,10.77
2023-01-09T00:42:36.663Z,10.40
2023-01-09T00:45:13.757Z,11.13
2023-01-09T00:47:47.820Z,11.00
2023-01-09T00:50:23.313Z,11.10
2023-01-09T00:52:56.305Z,10.50
2023-01-09T00:55:28.522Z,11.13
2023-01-09T00:57:59.434Z,11.43
2023-01-09T01:00:30.382Z,10.97
2023-01-09T01:03:01.814Z,10.90
2023-01-09T01:05:49.349Z,10.70
2023-01-09T01:08:21.352Z,11.13
2023-01-09T01:10:52.040Z,10.70
2023-01-09T01:13:27.838Z,11.20
2023-01-09T01:16:01.410Z,11.73
2023-01-09T01:18:32.105Z,12.03
2023-01-09T01:21:04.919Z,12.33
2023-01-09T01:23:38.434Z,11.37
2023-01-09T01:26:11.933Z,11.13
2023-01-09T01:28:43.444Z,10.90
2023-01-09T01:31:19.148Z,11.90
2023-01-09T01:33:50.085Z,11.93
2023-01-09T01:36:20.703Z,11.93
2023-01-09T01:38:52.692Z,11.43
2023-01-09T01:41:32.500Z,11.57
2023-01-09T01:44:08.842Z,12.17
2023-01-09T01:46:39.510Z,12.10
2023-01-09T01:49:14.629Z,11.77
2023-01-09T01:51:48.062Z,11.40
2023-01-09T01:54:21.615Z,12.20
2023-01-09T01:56:56.993Z,12.17
2023-01-09T01:59:30.550Z,12.70
2023-01-09T02:02:02.790Z,12.43
2023-01-09T02:04:40.360Z,12.57
2023-01-09T02:07:11.438Z,12.00
2023-01-09T02:09:45.591Z,12.40
2023-01-09T02:12:27.780Z,12.68
2023-01-09T02:15:11.905Z,12.40
2023-01-09T02:18:00.477Z,12.07
2023-01-09T02:20:47.188Z,12.90
2023-01-09T02:23:49.993Z,12.78
2023-01-09T02:26:32.515Z,11.93
2023-01-09T02:29:34.754Z,11.93
2023-01-09T02:32:08.293Z,14.20
2023-01-09T02:34:44.821Z,12.13
2023-01-09T02:37:21.487Z,13.30
2023-01-09T02:40:04.424Z,12.80
2023-01-09T02:42:40.807Z,13.93
2023-01-09T02:45:11.712Z,13.10
2023-01-09T02:47:47.755Z,13.27
2023-01-09T02:50:24.611Z,13.17
2023-01-09T02:53:09.814Z,13.73
2023-01-09T02:55:55.739Z,12.47
2023-01-09T02:58:35.079Z,14.03
2023-01-09T03:01:24.163Z,14.58
2023-01-09T03:04:13.496Z,14.17
2023-01-09T03:06:47.377Z,14.77
2023-01-09T03:09:23.659Z,14.40
2023-01-09T03:12:03.827Z,14.10
2023-01-09T03:14:37.258Z,13.93
2023-01-09T03:17:13.721Z,15.13
2023-01-09T03:19:46.456Z,13.80
2023-01-09T03:22:19.866Z,14.60
2023-01-09T03:24:49.673Z,15.00
2023-01-09T03:27:22.260Z,14.38
2023-01-09T03:29:53.433Z,14.53
2023-01-09T03:32:27.100Z,15.10
2023-01-09T03:34:57.580Z,14.38
2023-01-09T03:37:28.005Z,13.93
2023-01-09T03:39:58.564Z,14.75
2023-01-09T03:42:33.457Z,14.67
2023-01-09T03:45:05.632Z,14.90
2023-01-09T03:47:36.318Z,14.37
2023-01-09T03:50:10.323Z,14.60
2023-01-09T03:52:42.837Z,15.30
2023-01-09T03:55:16.039Z,14.78
2023-01-09T03:57:49.727Z,15.13
2023-01-09T04:00:21.552Z,13.90
2023-01-09T04:02:52.068Z,13.97
2023-01-09T04:05:24.418Z,15.30
2023-01-09T04:07:58.154Z,13.77
2023-01-09T04:10:29.036Z,13.77
2023-01-09T04:12:59.576Z,14.13
2023-01-09T04:15:31.407Z,14.63
2023-01-09T04:18:03.837Z,14.20
2023-01-09T04:20:35.032Z,13.87
2023-01-09T04:23:05.558Z,14.70
2023-01-09T04:25:36.220Z,14.07
2023-01-09T04:28:06.876Z,13.77
2023-01-09T04:30:37.445Z,14.43
2023-01-09T04:33:10.780Z,13.27
2023-01-09T04:35:41.465Z,13.93
2023-01-09T04:38:11.980Z,13.60
2023-01-09T04:40:42.461Z,14.80
2023-01-09T04:43:14.604Z,14.03
2023-01-09T04:45:45.276Z,14.17
2023-01-09T04:48:18.598Z,14.18
2023-01-09T04:50:49.223Z,13.53
2023-01-09T04:53:19.685Z,13.60
2023-01-09T04:55:50.154Z,14.20
2023-01-09T04:58:22.896Z,13.63
2023-01-09T05:00:53.354Z,13.90
2023-01-09T05:03:24.983Z,13.63
2023-01-09T05:05:58.026Z,13.60
2023-01-09T05:08:28.794Z,12.97
2023-01-09T05:11:00.605Z,14.25
2023-01-09T05:13:31.374Z,14.37
2023-01-09T05:16:02.771Z,13.17
2023-01-09T05:18:33.793Z,14.20
2023-01-09T05:21:04.814Z,14.70
2023-01-09T05:23:37.259Z,13.20
2023-01-09T05:26:07.856Z,14.13
2023-01-09T05:28:39.067Z,13.83
2023-01-09T05:31:12.604Z,13.77
2023-01-09T05:33:45.614Z,13.20
2023-01-09T05:36:17.763Z,14.40
2023-01-09T05:38:48.229Z,14.10
2023-01-09T05:41:18.876Z,14.37
2023-01-09T05:43:50.022Z,13.33
2023-01-09T05:46:20.677Z,13.27
2023-01-09T05:48:51.126Z,13.85
2023-01-09T05:51:21.592Z,13.87
2023-01-09T05:53:52.259Z,13.57
2023-01-09T05:56:22.981Z,14.13
2023-01-09T05:58:54.516Z,13.93
2023-01-09T06:01:24.974Z,14.28
2023-01-09T06:03:56.134Z,14.25
2023-01-09T06:06:26.668Z,13.77
2023-01-09T06:08:57.097Z,15.30
2023-01-09T06:11:28.191Z,14.87
2023-01-09T06:13:58.710Z,14.80
2023-01-09T06:16:29.203Z,15.13
2023-01-09T06:18:59.773Z,15.28
2023-01-09T06:21:30.634Z,15.65
2023-01-09T06:24:01.128Z,16.13
2023-01-09T06:26:33.465Z,15.87
2023-01-09T06:29:04.392Z,16.35
2023-01-09T06:31:37.821Z,15.63
2023-01-09T06:34:09.615Z,15.20
2023-01-09T06:36:43.087Z,16.33
2023-01-09T06:39:16.528Z,16.30
2023-01-09T06:41:48.469Z,15.33
2023-01-09T06:44:20.662Z,16.13
2023-01-09T06:46:52.766Z,17.00
2023-01-09T06:49:25.733Z,17.07
2023-01-09T06:51:59.116Z,16.80
2023-01-09T06:54:31.250Z,16.33
2023-01-09T06:57:03.370Z,16.48
2023-01-09T06:59:34.122Z,16.10
2023-01-09T07:02:05.216Z,16.23
2023-01-09T07:04:35.857Z,16.00
2023-01-09T07:07:06.761Z,16.90
2023-01-09T07:09:37.594Z,15.57
2023-01-09T07:12:08.299Z,16.20
2023-01-09T07:14:38.791Z,16.37
2023-01-09T07:17:12.681Z,20.20
2023-01-09T07:19:43.275Z,17.40
2023-01-09T07:22:13.929Z,16.83
2023-01-09T07:24:46.607Z,16.55
2023-01-09T07:27:17.471Z,16.23
2023-01-09T07:29:48.378Z,16.95
2023-01-09T07:32:18.983Z,16.23
2023-01-09T07:34:53.693Z,16.73
2023-01-09T07:37:24.281Z,16.67
2023-01-09T07:39:54.732Z,15.53
2023-01-09T07:42:26.681Z,16.53
2023-01-09T07:44:58.367Z,16.42
2023-01-09T07:47:29.025Z,16.47
2023-01-09T07:49:59.515Z,16.13
2023-01-09T07:52:31.004Z,17.60
2023-01-09T07:55:01.443Z,15.63
2023-01-09T07:57:32.174Z,16.10
2023-01-09T08:00:07.878Z,16.67
2023-01-09T08:02:40.065Z,15.87
2023-01-09T08:05:13.889Z,15.50
2023-01-09T08:07:46.064Z,15.77
2023-01-09T08:10:18.431Z,16.50
2023-01-09T08:12:50.602Z,16.37
2023-01-09T08:15:38.685Z,15.97
2023-01-09T08:18:09.142Z,16.67
2023-01-09T08:20:41.121Z,16.43
2023-01-09T08:23:11.765Z,16.40
2023-01-09T08:25:44.819Z,16.03
2023-01-09T08:28:18.767Z,16.48
2023-01-09T08:30:49.365Z,15.57
2023-01-09T08:33:24.215Z,15.83
2023-01-09T08:35:55.086Z,16.03
2023-01-09T08:38:28.790Z,15.28
2023-01-09T08:40:59.322Z,16.27
2023-01-09T08:43:48.928Z,15.90
2023-01-09T08:46:40.593Z,16.23
2023-01-09T08:49:15.998Z,15.70
2023-01-09T08:51:46.478Z,16.55
2023-01-09T08:54:16.916Z,15.20
2023-01-09T08:56:48.065Z,15.97
2023-01-09T08:59:20.205Z,18.73
2023-01-09T09:01:50.702Z,21.77
2023-01-09T09:04:22.395Z,19.23
2023-01-09T09:06:54.634Z,17.53
2023-01-09T09:09:26.124Z,15.30
2023-01-09T09:11:56.559Z,16.12
2023-01-09T09:14:45.524Z,15.27
2023-01-09T09:17:19.193Z,15.18
2023-01-09T09:19:49.931Z,15.03
2023-01-09T09:22:20.696Z,14.27
2023-01-09T09:24:54.154Z,14.87
2023-01-09T09:27:25.654Z,15.10
2023-01-09T09:29:59.046Z,14.53
2023-01-09T09:32:29.439Z,15.43
2023-01-09T09:34:59.984Z,13.83
2023-01-09T09:37:30.567Z,14.15
2023-01-09T09:40:13.358Z,13.00
2023-01-09T09:43:09.897Z,12.98
2023-01-09T09:45:59.989Z,13.73
2023-01-09T09:48:39.245Z,12.43
2023-01-09T09:51:28.241Z,12.30
2023-01-09T09:54:14.265Z,12.53
2023-01-09T09:56:54.579Z,11.45
2023-01-09T09:59:28.105Z,10.95
2023-01-09T10:02:07.875Z,11.15
2023-01-09T10:04:41.636Z,11.77
2023-01-09T10:07:24.181Z,11.73
2023-01-09T10:09:59.566Z,10.60
2023-01-09T10:12:34.491Z,12.33
2023-01-09T10:15:20.768Z,10.82
2023-01-09T10:17:57.397Z,10.95
2023-01-09T10:20:36.709Z,10.33
2023-01-09T10:23:21.968Z,10.53
2023-01-09T10:26:01.296Z,11.10
2023-01-09T10:28:43.405Z,10.55
2023-01-09T10:31:17.496Z,9.58
2023-01-09T10:33:57.592Z,9.88
2023-01-09T10:36:43.624Z,9.83
2023-01-09T10:39:21.818Z,9.00
2023-01-09T10:42:24.640Z,8.48
2023-01-09T10:45:16.464Z,7.83
2023-01-09T10:47:49.452Z,9.43
2023-01-09T10:50:29.503Z,8.20
2023-01-09T10:53:02.314Z,7.67
2023-01-09T10:55:39.771Z,7.58
2023-01-09T10:58:14.006Z,7.37
2023-01-09T11:00:45.050Z,8.05
2023-01-09T11:03:21.809Z,8.08
2023-01-09T11:05:54.528Z,7.53
2023-01-09T11:08:39.695Z,7.08
2023-01-09T11:11:12.717Z,7.15
2023-01-09T11:13:45.456Z,8.60
2023-01-09T11:16:21.996Z,6.62
2023-01-09T11:18:59.270Z,7.17
2023-01-09T11:21:36.185Z,7.90
2023-01-09T11:24:19.501Z,7.42
2023-01-09T11:26:53.647Z,6.40
2023-01-09T11:29:25.265Z,6.87
2023-01-09T11:31:59.737Z,5.67
2023-01-09T11:34:34.534Z,6.12
2023-01-09T11:37:15.835Z,5.90
2023-01-09T11:39:48.326Z,6.05
2023-01-09T11:42:42.420Z,6.00
2023-01-09T11:45:27.776Z,5.25
2023-01-09T11:47:59.150Z,5.45
2023-01-09T11:50:32.395Z,5.75
2023-01-09T11:53:20.578Z,6.20
2023-01-09T11:56:01.170Z,5.25
2023-01-09T11:58:35.376Z,5.50
2023-01-09T12:01:11.587Z,5.65
2023-01-09T12:04:15.050Z,5.42
2023-01-09T12:06:52.540Z,5.10
2023-01-09T12:09:54.175Z,5.40
2023-01-09T12:12:30.564Z,4.30
2023-01-09T12:15:25.408Z,4.80
2023-01-09T12:17:58.884Z,4.25
2023-01-09T12:20:44.362Z,4.10
2023-01-09T12:23:42.288Z,3.75
2023-01-09T12:26:37.075Z,3.27
2023-01-09T12:29:31.257Z,3.75
2023-01-09T12:32:25.113Z,3.58
2023-01-09T12:35:01.256Z,3.80
2023-01-09T12:37:43.391Z,3.87
2023-01-09T12:40:18.306Z,3.80
2023-01-09T12:43:03.805Z,3.62
2023-01-09T12:45:38.973Z,3.70
2023-01-09T12:48:12.649Z,4.03
2023-01-09T12:50:56.586Z,4.00
2023-01-09T12:53:30.052Z,3.50
2023-01-09T12:56:08.158Z,3.55
2023-01-09T12:58:47.534Z,3.90
2023-01-09T13:01:23.871Z,4.17
2023-01-09T13:03:57.453Z,4.05
2023-01-09T13:06:29.817Z,4.03
2023-01-09T13:09:15.710Z,3.75
2023-01-09T13:12:04.122Z,3.27
2023-01-09T13:14:46.737Z,3.77
2023-01-09T13:17:20.402Z,3.50
2023-01-09T13:19:51.257Z,3.50
2023-01-09T13:22:25.986Z,3.45
2023-01-09T13:25:10.625Z,3.27
2023-01-09T13:27:42.208Z,3.50
2023-01-09T13:30:22.484Z,6.20
2023-01-09T13:33:02.205Z,3.98
2023-01-09T13:35:36.658Z,3.60
2023-01-09T13:38:13.113Z,3.60
2023-01-09T13:40:46.470Z,3.85
2023-01-09T13:43:17.187Z,3.58
2023-01-09T13:45:52.873Z,3.22
2023-01-09T13:48:30.797Z,3.40
2023-01-09T13:51:39.364Z,3.60
2023-01-09T13:54:12.996Z,3.20
2023-01-09T13:57:18.855Z,3.20
2023-01-09T13:59:52.289Z,3.00
2023-01-09T14:02:48.216Z,2.77
2023-01-09T14:05:27.479Z,2.90
2023-01-09T14:08:09.137Z,3.15
2023-01-09T14:10:50.653Z,2.73
2023-01-09T14:13:26.966Z,2.90
2023-01-09T14:16:09.448Z,2.60
2023-01-09T14:18:44.737Z,3.25
2023-01-09T14:21:16.027Z,2.67
2023-01-09T14:24:05.335Z,2.92
2023-01-09T14:26:47.032Z,3.20
2023-01-09T14:29:40.674Z,2.90
2023-01-09T14:32:40.232Z,2.98
2023-01-09T14:35:10.313Z,2.90
2023-01-09T14:37:43.322Z,2.70
2023-01-09T14:40:25.057Z,2.80
2023-01-09T14:42:58.304Z,2.80
2023-01-09T14:45:30.663Z,3.10
2023-01-09T14:48:11.140Z,2.65
2023-01-09T14:50:57.661Z,3.65
2023-01-09T14:53:39.248Z,3.05
2023-01-09T14:56:15.698Z,2.70
2023-01-09T14:58:50.539Z,3.05
2023-01-09T15:01:23.944Z,3.20
2023-01-09T15:04:02.465Z,3.10
2023-01-09T15:06:36.505Z,2.92
2023-01-09T15:09:19.909Z,3.75
2023-01-09T15:11:54.286Z,4.67
2023-01-09T15:14:41.995Z,3.10
2023-01-09T15:17:28.290Z,8.38
2023-01-09T15:20:01.547Z,3.35
2023-01-09T15:22:39.245Z,3.20
2023-01-09T15:25:38.900Z,2.90
2023-01-09T15:28:26.806Z,3.20
2023-01-09T15:31:09.177Z,3.00
2023-01-09T15:33:47.948Z,3.47
2023-01-09T15:36:26.890Z,3.50
2023-01-09T15:38:59.292Z,3.10
2023-01-09T15:41:50.191Z,3.00
2023-01-09T15:44:24.644Z,2.60
2023-01-09T15:46:58.488Z,4.30
2023-01-09T15:49:30.661Z,4.20
2023-01-09T15:52:02.249Z,3.47
2023-01-09T15:54:37.136Z,3.83
2023-01-09T15:57:30.440Z,3.62
2023-01-09T16:00:24.076Z,3.72
2023-01-09T16:03:12.376Z,2.95
2023-01-09T16:05:52.647Z,3.22
2023-01-09T16:08:31.843Z,4.17
2023-01-09T16:11:10.973Z,4.05
2023-01-09T16:13:46.424Z,4.78
2023-01-09T16:16:28.996Z,4.25
2023-01-09T16:19:02.013Z,2.70
2023-01-09T16:21:35.745Z,2.92
2023-01-09T16:24:21.403Z,2.45
2023-01-09T16:26:58.094Z,2.85
2023-01-09T16:29:39.692Z,2.67
2023-01-09T16:32:13.635Z,2.30
2023-01-09T16:34:47.128Z,2.77
2023-01-09T16:37:20.836Z,2.47
2023-01-09T16:40:11.101Z,2.72
2023-01-09T16:43:07.341Z,2.50
2023-01-09T16:45:49.162Z,2.55
2023-01-09T16:48:22.108Z,3.20
2023-01-09T16:50:54.263Z,3.15
2023-01-09T16:53:28.412Z,2.90
2023-01-09T16:56:00.993Z,2.47
2023-01-09T16:58:34.353Z,2.40
2023-01-09T17:01:11.931Z,2.62
2023-01-09T17:03:44.222Z,2.47
2023-01-09T17:06:25.241Z,2.30
2023-01-09T17:08:55.863Z,2.50
2023-01-09T17:11:32.401Z,2.20
2023-01-09T17:14:08.263Z,2.55
2023-01-09T17:16:40.747Z,2.33
2023-01-09T17:19:19.733Z,3.25
2023-01-09T17:21:52.648Z,2.85
2023-01-09T17:24:42.269Z,3.75
2023-01-09T17:27:30.955Z,2.53
2023-01-09T17:30:05.624Z,2.20
2023-01-09T17:32:35.040Z,2.10
2023-01-09T17:35:08.127Z,2.22
2023-01-09T17:37:39.009Z,2.85
2023-01-09T17:40:21.952Z,3.58
2023-01-09T17:42:53.995Z,3.02
2023-01-09T17:45:26.769Z,3.47
2023-01-09T17:47:59.465Z,3.60
2023-01-09T17:50:33.675Z,4.70
2023-01-09T17:53:06.771Z,4.37
2023-01-09T17:55:37.321Z,3.58
2023-01-09T17:58:09.022Z,2.47
2023-01-09T18:00:41.175Z,2.58
2023-01-09T18:03:12.516Z,2.90
2023-01-09T18:05:43.197Z,2.40
2023-01-09T18:08:16.155Z,1.80
2023-01-09T18:10:48.373Z,2.40
2023-01-09T18:13:20.311Z,2.50
2023-01-09T18:15:51.705Z,2.58
2023-01-09T18:18:22.470Z,2.27
2023-01-09T18:20:54.167Z,2.50
2023-01-09T18:23:24.953Z,2.47
2023-01-09T18:25:59.015Z,2.77
2023-01-09T18:28:35.789Z,3.65
2023-01-09T18:31:06.174Z,3.02
2023-01-09T18:33:39.418Z,3.02
2023-01-09T18:36:12.749Z,3.67
2023-01-09T18:38:44.341Z,4.67
2023-01-09T18:41:14.885Z,3.30
2023-01-09T18:43:48.682Z,2.70
2023-01-09T18:46:21.258Z,3.10
2023-01-09T18:49:02.179Z,2.80
2023-01-09T18:51:36.802Z,3.42
2023-01-09T18:54:12.258Z,3.05
2023-01-09T18:56:42.893Z,3.67
2023-01-09T18:59:16.683Z,2.87
2023-01-09T19:01:47.270Z,2.62
2023-01-09T19:04:26.735Z,2.90
2023-01-09T19:06:58.871Z,3.00
2023-01-09T19:09:29.875Z,2.70
2023-01-09T19:12:00.366Z,2.80
2023-01-09T19:14:32.389Z,2.67
2023-01-09T19:17:06.681Z,2.80
2023-01-09T19:19:37.367Z,2.70
2023-01-09T19:22:08.201Z,2.90
2023-01-09T19:24:38.809Z,2.72
2023-01-09T19:27:09.464Z,3.00
2023-01-09T19:29:40.426Z,2.52
2023-01-09T19:32:13.485Z,2.55
2023-01-09T19:34:44.768Z,2.10
2023-01-09T19:37:17.844Z,2.77
2023-01-09T19:39:48.766Z,2.33
2023-01-09T19:42:21.980Z,2.90
2023-01-09T19:44:54.275Z,2.70
2023-01-09T19:47:24.861Z,2.80
2023-01-09T19:49:56.844Z,2.55
2023-01-09T19:52:29.823Z,2.52
2023-01-09T19:55:00.721Z,2.77
2023-01-09T19:57:38.524Z,2.92
2023-01-09T20:00:07.726Z,3.00
2023-01-09T20:02:40.246Z,2.58
2023-01-09T20:05:14.058Z,2.75
2023-01-09T20:07:47.779Z,2.60
2023-01-09T20:10:19.609Z,2.60
2023-01-09T20:12:54.352Z,2.80
2023-01-09T20:15:25.940Z,2.58
2023-01-09T20:17:57.656Z,2.70
2023-01-09T20:20:29.972Z,2.80
2023-01-09T20:23:00.492Z,3.10
2023-01-09T20:25:32.294Z,2.90
2023-01-09T20:28:02.982Z,2.60
2023-01-09T20:30:35.381Z,2.77
2023-01-09T20:33:06.058Z,2.70
2023-01-09T20:35:36.720Z,2.98
2023-01-09T20:38:09.914Z,2.65
2023-01-09T20:40:45.426Z,2.50
2023-01-09T20:43:18.364Z,2.30
2023-01-09T20:45:49.244Z,2.20
2023-01-09T20:48:20.348Z,2.77
2023-01-09T20:50:53.229Z,2.90
2023-01-09T20:53:24.268Z,2.50
2023-01-09T20:55:59.502Z,2.92
2023-01-09T20:58:30.022Z,2.50
2023-01-09T21:01:08.790Z,2.27
2023-01-09T21:03:51.022Z,2.60
2023-01-09T21:06:26.919Z,2.70
2023-01-09T21:08:57.492Z,2.33
2023-01-09T21:11:30.330Z,2.83
2023-01-09T21:14:01.353Z,2.47
2023-01-09T21:16:33.922Z,2.37
2023-01-09T21:19:05.368Z,2.37
2023-01-09T21:21:37.555Z,2.42
2023-01-09T21:24:11.608Z,2.60
2023-01-09T21:26:42.175Z,2.55
2023-01-09T21:29:14.819Z,2.40
2023-01-09T21:31:46.778Z,2.20
2023-01-09T21:34:20.356Z,2.40
2023-01-09T21:36:52.789Z,2.83
2023-01-09T21:39:24.112Z,3.00
2023-01-09T21:42:12.688Z,2.47
2023-01-09T21:45:02.831Z,2.50
2023-01-09T21:47:33.691Z,2.30
2023-01-09T21:50:07.666Z,2.20
2023-01-09T21:52:38.237Z,2.92
2023-01-09T21:55:10.051Z,2.40
2023-01-09T21:57:41.896Z,2.40
2023-01-09T22:00:14.701Z,2.33
2023-01-09T22:02:47.935Z,2.58
2023-01-09T22:05:19.428Z,2.42
2023-01-09T22:07:54.047Z,1.85
2023-01-09T22:10:31.364Z,2.10
2023-01-09T22:13:17.979Z,2.30
2023-01-09T22:15:49.903Z,2.30
2023-01-09T22:18:20.555Z,2.60
2023-01-09T22:20:50.962Z,2.40
2023-01-09T22:23:23.139Z,2.27
2023-01-09T22:25:58.393Z,2.40
2023-01-09T22:28:30.940Z,2.13
2023-01-09T22:31:01.381Z,2.42
2023-01-09T22:33:36.409Z,2.65
2023-01-09T22:36:12.951Z,2.23
2023-01-09T22:38:47.103Z,2.30
2023-01-09T22:41:18.538Z,2.20
2023-01-09T22:43:50.348Z,2.30
2023-01-09T22:46:21.971Z,2.30
2023-01-09T22:48:54.886Z,2.20
2023-01-09T22:51:26.086Z,2.17
2023-01-09T22:53:56.718Z,2.58
2023-01-09T22:56:29.026Z,2.60
2023-01-09T22:59:01.956Z,2.40
2023-01-09T23:01:33.539Z,2.70
2023-01-09T23:04:05.223Z,2.80
2023-01-09T23:06:39.537Z,2.67
2023-01-09T23:09:11.763Z,2.77
2023-01-09T23:12:01.253Z,3.12
2023-01-09T23:14:35.098Z,3.15
2023-01-09T23:17:08.662Z,2.90
2023-01-09T23:19:42.333Z,2.67
2023-01-09T23:22:13.190Z,2.92
2023-01-09T23:24:45.609Z,2.65
2023-01-09T23:27:16.325Z,2.90
2023-01-09T23:29:51.240Z,2.77
2023-01-09T23:32:27.950Z,2.47
2023-01-09T23:34:59.707Z,2.75
2023-01-09T23:37:31.724Z,2.65
2023-01-09T23:40:04.750Z,2.98
2023-01-09T23:42:54.691Z,2.85
2023-01-09T23:45:26.062Z,3.05
2023-01-09T23:47:57.319Z,3.27
2023-01-09T23:50:29.334Z,3.00
2023-01-09T23:53:00.348Z,3.10
2023-01-09T23:55:32.396Z,3.00
2023-01-09T23:58:02.855Z,3.00
